Time;durP1;ratioP1;P1;durP2;ratioP2;P2;SDS_P1;SDS_P2;PMS_P1;PMS_P2;Temp;Humidity;BMP_temperature;BMP_pressure;BME280_temperature;BME280_humidity;BME280_pressure;Samples;Min_cycle;Max_cycle;Signal;HPM_P1;HPM_P2
2023/01/17 00:02:18;;;;;;;5.07;2.78;;;1.80;50.20;;;;;;5034377;28;20029;-85
2023/01/17 00:10:20;;;;;;;7.10;3.47;;;1.70;50.20;;;;;;5032295;28;20072;-83
2023/01/17 00:12:51;;;;;;;5.63;3.65;;;1.70;50.20;;;;;;5033991;28;20275;-83
2023/01/17 00:15:18;;;;;;;7.88;4.43;;;1.60;50.00;;;;;;5034178;28;20507;-86
2023/01/17 00:17:45;;;;;;;7.20;3.67;;;1.60;50.10;;;;;;5036805;28;20059;-85
2023/01/17 01:35:29;;;;;;;7.68;5.22;;;0.70;49.70;;;;;;5037784;28;20116;-87
2023/01/17 01:37:55;;;;;;;10.50;4.93;;;0.70;49.80;;;;;;5037954;28;20036;-86
2023/01/17 01:40:21;;;;;;;6.70;4.50;;;0.70;49.80;;;;;;5022411;28;20029;-87
2023/01/17 01:42:51;;;;;;;9.70;5.85;;;0.70;49.80;;;;;;5041962;28;20045;-86
2023/01/17 01:45:20;;;;;;;6.45;4.90;;;0.60;49.70;;;;;;5040631;28;20081;-85
2023/01/17 01:47:47;;;;;;;7.85;4.78;;;0.70;49.90;;;;;;5040746;28;20275;-87
2023/01/17 01:50:13;;;;;;;7.55;4.80;;;0.70;49.90;;;;;;5046306;28;20041;-87
2023/01/17 01:52:44;;;;;;;6.93;5.00;;;0.60;49.80;;;;;;5045768;28;20046;-87
2023/01/17 01:55:38;;;;;;;10.82;4.75;;;0.60;49.80;;;;;;5027680;28;20380;-87
2023/01/17 01:58:11;;;;;;;7.40;4.63;;;0.60;49.80;;;;;;5033710;28;20283;-88
2023/01/17 02:00:39;;;;;;;8.65;4.65;;;0.60;49.80;;;;;;5046388;28;20055;-87
2023/01/17 02:03:14;;;;;;;5.97;4.07;;;0.50;49.60;;;;;;5039933;28;20025;-88
2023/01/17 02:05:42;;;;;;;9.13;4.78;;;0.60;49.80;;;;;;5022322;28;20025;-86
2023/01/17 02:08:12;;;;;;;7.00;4.13;;;0.50;49.70;;;;;;5025246;28;20033;-86
2023/01/17 02:10:40;;;;;;;6.38;4.25;;;0.50;49.70;;;;;;5045359;28;20038;-86
2023/01/17 02:13:08;;;;;;;8.65;4.60;;;0.50;49.70;;;;;;5034743;28;20025;-85
2023/01/17 02:15:52;;;;;;;7.05;4.32;;;0.50;49.80;;;;;;5028134;28;20045;-86
2023/01/17 02:18:42;;;;;;;8.93;4.40;;;0.40;49.60;;;;;;5038822;28;20041;-86
2023/01/17 02:21:11;;;;;;;7.43;4.57;;;0.40;49.60;;;;;;5030706;28;20061;-88
2023/01/17 02:24:19;;;;;;;7.25;5.07;;;0.40;49.70;;;;;;5050706;28;20067;-87
2023/01/17 02:26:57;;;;;;;8.57;4.90;;;0.40;49.70;;;;;;5037286;28;20037;-84
2023/01/17 02:29:38;;;;;;;7.93;4.15;;;0.40;49.70;;;;;;5022771;28;20040;-86
2023/01/17 02:32:13;;;;;;;6.45;5.22;;;0.40;49.70;;;;;;5033299;28;20048;-86
2023/01/17 02:35:00;;;;;;;10.32;5.85;;;0.30;49.60;;;;;;5032820;28;20041;-86
2023/01/17 02:37:44;;;;;;;9.70;5.75;;;0.40;49.80;;;;;;5041852;28;20025;-86
2023/01/17 02:40:22;;;;;;;9.65;5.90;;;0.30;49.60;;;;;;5035310;28;20215;-87
2023/01/17 02:42:55;;;;;;;14.20;7.43;;;0.30;49.60;;;;;;5037962;28;20024;-86
2023/01/17 02:45:21;;;;;;;10.90;6.40;;;0.30;49.60;;;;;;5050760;28;20029;-88
2023/01/17 02:47:47;;;;;;;8.55;5.53;;;0.40;49.80;;;;;;5039359;28;20056;-86
2023/01/17 02:50:19;;;;;;;6.85;5.13;;;0.30;49.70;;;;;;5039233;28;20041;-88
2023/01/17 02:53:11;;;;;;;8.55;5.35;;;0.30;49.70;;;;;;5032396;28;20076;-86
2023/01/17 02:55:53;;;;;;;8.85;5.47;;;0.30;49.70;;;;;;5029856;28;20033;-86
2023/01/17 02:58:37;;;;;;;7.80;5.10;;;0.30;49.70;;;;;;5034793;28;20033;-85
2023/01/17 03:01:37;;;;;;;10.45;5.53;;;0.30;49.70;;;;;;5037186;28;20574;-85
2023/01/17 03:04:16;;;;;;;8.15;5.28;;;0.20;49.50;;;;;;5018419;28;20046;-86
2023/01/17 03:06:52;;;;;;;10.00;6.18;;;0.20;49.60;;;;;;5021231;28;20320;-84
2023/01/17 03:09:19;;;;;;;8.23;5.45;;;0.20;49.60;;;;;;5032581;28;20038;-83
2023/01/17 03:11:45;;;;;;;6.28;5.13;;;0.20;49.70;;;;;;5024711;28;20125;-85
2023/01/17 03:14:11;;;;;;;9.10;6.03;;;0.20;49.70;;;;;;5044047;28;20071;-83
2023/01/17 03:16:38;;;;;;;8.73;5.47;;;0.20;49.70;;;;;;5034547;28;20051;-84
2023/01/17 03:19:04;;;;;;;7.38;5.28;;;0.20;50.30;;;;;;5035363;28;20040;-83
2023/01/17 03:21:30;;;;;;;8.23;5.43;;;0.20;49.70;;;;;;5048226;28;20043;-83
2023/01/17 03:23:56;;;;;;;8.68;5.63;;;0.20;49.80;;;;;;5032847;28;20044;-83
2023/01/17 03:26:21;;;;;;;6.22;4.78;;;0.10;49.60;;;;;;5042904;28;20025;-85
2023/01/17 03:28:47;;;;;;;6.25;4.15;;;0.20;49.80;;;;;;5037089;28;20026;-86
2023/01/17 03:31:18;;;;;;;7.53;4.47;;;0.10;49.70;;;;;;5024147;28;20033;-85
2023/01/17 03:33:45;;;;;;;5.90;4.65;;;0.10;49.70;;;;;;5023837;28;20044;-86
2023/01/17 03:36:11;;;;;;;7.93;4.60;;;0.10;49.70;;;;;;5041752;28;20045;-85
2023/01/17 03:38:37;;;;;;;7.88;4.82;;;0.00;49.60;;;;;;5039954;28;20196;-85
2023/01/17 03:41:03;;;;;;;9.90;6.57;;;0.10;49.80;;;;;;5041977;28;20093;-86
2023/01/17 03:43:29;;;;;;;8.27;4.97;;;0.00;49.60;;;;;;5033216;28;20035;-85
2023/01/17 03:46:04;;;;;;;10.77;5.95;;;0.00;49.70;;;;;;5031141;28;20044;-85
2023/01/17 03:48:30;;;;;;;9.35;5.28;;;0.00;49.70;;;;;;5036012;28;20068;-84
2023/01/17 03:50:56;;;;;;;8.40;5.90;;;0.00;49.70;;;;;;5044740;28;20034;-85
2023/01/17 03:53:23;;;;;;;9.50;6.25;;;0.00;49.80;;;;;;5043710;28;20657;-85
2023/01/17 03:55:49;;;;;;;9.23;6.32;;;0.00;49.80;;;;;;5040499;28;20129;-84
2023/01/17 03:58:15;;;;;;;7.78;5.85;;;0.00;49.80;;;;;;5048169;28;20094;-86
2023/01/17 04:00:41;;;;;;;9.75;6.15;;;0.00;49.70;;;;;;5046676;28;20033;-86
2023/01/17 04:03:07;;;;;;;10.57;5.50;;;0.10;49.90;;;;;;5046125;28;20101;-86
2023/01/17 04:05:33;;;;;;;8.95;6.07;;;0.10;49.90;;;;;;5036584;28;20210;-86
2023/01/17 04:07:59;;;;;;;10.27;6.10;;;0.00;49.70;;;;;;5055429;28;20025;-87
2023/01/17 04:10:25;;;;;;;6.10;5.50;;;0.00;49.70;;;;;;5033593;28;20025;-87
2023/01/17 04:12:51;;;;;;;7.90;6.00;;;0.00;49.70;;;;;;5043606;28;20047;-86
2023/01/17 04:15:17;;;;;;;8.55;6.38;;;0.00;49.80;;;;;;5047236;28;20036;-87
2023/01/17 04:17:43;;;;;;;12.23;6.38;;;0.00;49.80;;;;;;5051807;28;20231;-86
2023/01/17 04:20:20;;;;;;;10.50;6.78;;;0.00;49.80;;;;;;5039478;28;20087;-89
2023/01/17 04:22:46;;;;;;;9.05;6.10;;;0.00;49.90;;;;;;5036023;28;20483;-86
2023/01/17 04:25:12;;;;;;;9.45;6.40;;;0.00;49.90;;;;;;5039573;28;20045;-86
2023/01/17 04:27:38;;;;;;;9.88;7.07;;;0.00;49.90;;;;;;5038322;28;20052;-86
2023/01/17 04:30:04;;;;;;;11.20;6.75;;;0.00;49.90;;;;;;5039782;28;20025;-87
2023/01/17 04:32:30;;;;;;;9.60;6.25;;;0.00;49.90;;;;;;5037292;28;20034;-87
2023/01/17 04:34:56;;;;;;;11.32;7.43;;;0.00;49.90;;;;;;5038066;28;20196;-87
2023/01/17 04:37:22;;;;;;;12.07;6.80;;;0.00;50.50;;;;;;5039789;28;20038;-87
2023/01/17 04:39:47;;;;;;;9.77;6.72;;;-0.10;49.80;;;;;;5042080;28;20311;-87
2023/01/17 04:42:13;;;;;;;10.00;6.65;;;0.00;50.00;;;;;;5035649;28;20056;-88
2023/01/17 04:44:39;;;;;;;13.00;6.97;;;0.00;50.00;;;;;;5036039;28;20034;-87
2023/01/17 04:47:05;;;;;;;10.70;6.93;;;0.00;50.00;;;;;;5055421;28;20053;-87
2023/01/17 04:49:31;;;;;;;12.43;7.18;;;-0.10;49.80;;;;;;5041605;28;20022;-88
2023/01/17 04:51:57;;;;;;;10.15;6.85;;;-0.10;49.90;;;;;;5029022;28;20564;-87
2023/01/17 04:54:23;;;;;;;10.15;7.00;;;-0.10;49.90;;;;;;5038744;28;20206;-88
2023/01/17 04:56:49;;;;;;;11.68;6.80;;;0.00;50.10;;;;;;5045935;28;20037;-87
2023/01/17 04:59:15;;;;;;;11.38;6.68;;;-0.10;50.00;;;;;;5043599;28;20082;-86
2023/01/17 05:01:41;;;;;;;12.20;7.10;;;-0.10;50.00;;;;;;5053204;28;20034;-88
2023/01/17 05:04:07;;;;;;;8.73;6.97;;;-0.10;50.00;;;;;;5047012;28;20432;-89
2023/01/17 05:06:33;;;;;;;8.50;6.85;;;-0.10;50.00;;;;;;5039504;28;20057;-88
2023/01/17 05:08:59;;;;;;;13.35;7.65;;;-0.10;50.00;;;;;;5050488;28;20048;-89
2023/01/17 05:11:25;;;;;;;9.63;6.82;;;-0.10;50.00;;;;;;5040635;28;20033;-90
2023/01/17 05:13:50;;;;;;;11.30;7.55;;;-0.10;50.00;;;;;;5036174;28;20030;-89
2023/01/17 05:16:18;;;;;;;9.75;6.35;;;-0.10;50.00;;;;;;5042015;28;20033;-93
2023/01/17 05:18:44;;;;;;;8.45;6.30;;;-0.10;50.00;;;;;;5044892;28;20033;-92
2023/01/17 05:21:10;;;;;;;9.82;6.25;;;-0.10;50.00;;;;;;5037575;28;20029;-90
2023/01/17 05:23:36;;;;;;;10.45;6.22;;;-0.10;50.00;;;;;;5050375;28;20048;-90
2023/01/17 05:26:02;;;;;;;8.43;6.05;;;-0.20;49.90;;;;;;5048479;28;20049;-89
2023/01/17 05:28:28;;;;;;;9.23;6.40;;;-0.20;49.90;;;;;;5042189;28;20033;-88
2023/01/17 05:30:54;;;;;;;10.35;7.30;;;-0.20;50.00;;;;;;5041487;28;20411;-90
2023/01/17 05:33:20;;;;;;;9.25;6.80;;;-0.20;50.00;;;;;;5041663;28;20033;-88
2023/01/17 05:35:46;;;;;;;11.05;7.10;;;-0.20;50.00;;;;;;5041884;28;20038;-88
2023/01/17 05:38:12;;;;;;;11.43;7.35;;;-0.20;50.00;;;;;;5043325;28;20226;-87
2023/01/17 05:40:37;;;;;;;13.38;7.90;;;-0.20;50.00;;;;;;5048967;28;20037;-87
2023/01/17 05:43:04;;;;;;;15.57;10.07;;;-0.20;50.00;;;;;;5040629;28;20038;-85
2023/01/17 05:45:32;;;;;;;14.88;10.10;;;-0.20;50.00;;;;;;5037514;28;20030;-86
2023/01/17 05:47:58;;;;;;;14.98;9.88;;;-0.20;50.00;;;;;;5037785;28;20056;-86
2023/01/17 05:50:33;;;;;;;13.45;9.07;;;-0.20;50.00;;;;;;5036429;28;20037;-86
2023/01/17 05:53:08;;;;;;;11.98;8.88;;;-0.20;50.10;;;;;;5038204;28;20049;-88
2023/01/17 05:55:35;;;;;;;12.98;8.60;;;-0.20;50.00;;;;;;5051367;28;20037;-87
2023/01/17 05:58:01;;;;;;;19.35;9.30;;;-0.20;50.00;;;;;;5041884;28;20039;-86
2023/01/17 06:00:29;;;;;;;21.02;9.32;;;-0.20;50.10;;;;;;5039536;28;20029;-87
2023/01/17 06:02:57;;;;;;;23.00;10.55;;;-0.20;50.10;;;;;;5034405;28;20129;-85
2023/01/17 06:05:24;;;;;;;19.88;9.95;;;-0.30;49.90;;;;;;5036931;28;20125;-83
2023/01/17 06:07:51;;;;;;;19.77;9.75;;;-0.20;50.10;;;;;;5039822;28;20060;-82
2023/01/17 06:10:19;;;;;;;21.48;10.13;;;-0.30;49.90;;;;;;5044775;28;20156;-83
2023/01/17 06:12:46;;;;;;;16.67;9.68;;;-0.30;49.90;;;;;;5035136;28;20037;-81
2023/01/17 06:15:14;;;;;;;21.08;9.10;;;-0.30;49.90;;;;;;5027463;28;20048;-83
2023/01/17 06:17:40;;;;;;;19.75;9.65;;;-0.30;50.00;;;;;;5026725;28;20064;-82
2023/01/17 06:20:08;;;;;;;13.88;8.73;;;-0.30;50.00;;;;;;5027817;28;20460;-83
2023/01/17 06:22:34;;;;;;;17.25;9.40;;;-0.30;50.00;;;;;;5026034;28;20144;-84
2023/01/17 06:25:00;;;;;;;17.75;8.50;;;-0.30;50.00;;;;;;5038156;28;20065;-84
2023/01/17 06:27:26;;;;;;;13.55;8.48;;;-0.30;50.10;;;;;;5031809;28;20035;-82
2023/01/17 06:29:52;;;;;;;16.48;8.27;;;-0.40;49.90;;;;;;5032628;28;20044;-83
2023/01/17 06:32:18;;;;;;;14.65;7.85;;;-0.40;49.90;;;;;;5026376;28;20087;-85
2023/01/17 06:34:44;;;;;;;13.13;7.57;;;-0.40;49.90;;;;;;5022742;28;20112;-86
2023/01/17 06:37:10;;;;;;;11.18;7.35;;;-0.40;50.00;;;;;;5033977;28;20056;-85
2023/01/17 06:39:36;;;;;;;13.82;8.57;;;-0.40;50.00;;;;;;5022928;28;20033;-88
2023/01/17 06:42:02;;;;;;;12.95;8.32;;;-0.40;50.00;;;;;;5056093;28;20025;-85
2023/01/17 06:44:28;;;;;;;12.38;7.30;;;-0.50;49.80;;;;;;5035824;28;20029;-85
2023/01/17 06:46:54;;;;;;;11.95;6.57;;;-0.40;50.10;;;;;;5040076;28;20081;-82
2023/01/17 06:49:20;;;;;;;11.00;6.65;;;-0.50;49.90;;;;;;5044556;28;20049;-91
2023/01/17 06:51:46;;;;;;;9.82;6.20;;;-0.50;49.90;;;;;;5025044;28;20046;-76
2023/01/17 06:54:12;;;;;;;11.80;6.63;;;-0.50;49.90;;;;;;5034338;28;20025;-84
2023/01/17 06:56:38;;;;;;;9.07;5.88;;;-0.40;50.20;;;;;;5020256;28;20056;-88
2023/01/17 06:59:04;;;;;;;8.38;6.05;;;-0.40;50.30;;;;;;5041363;28;20029;-88
2023/01/17 07:01:30;;;;;;;12.85;6.03;;;-0.40;50.30;;;;;;5045088;28;20061;-87
2023/01/17 07:03:56;;;;;;;9.60;5.53;;;-0.40;50.20;;;;;;5032788;28;20088;-83
2023/01/17 07:06:27;;;;;;;8.15;5.40;;;-0.30;50.40;;;;;;5029303;28;20092;-86
2023/01/17 07:08:55;;;;;;;9.15;5.43;;;-0.30;50.50;;;;;;5039587;28;20314;-85
2023/01/17 07:11:21;;;;;;;7.85;5.72;;;-0.30;50.50;;;;;;5023824;28;20029;-85
2023/01/17 07:13:48;;;;;;;9.07;5.93;;;-0.20;50.70;;;;;;5037784;28;20172;-82
2023/01/17 07:16:14;;;;;;;11.90;5.97;;;-0.10;50.80;;;;;;5034830;28;20033;-81
2023/01/17 07:18:40;;;;;;;7.22;5.10;;;-0.10;50.80;;;;;;5029258;28;20500;-78
2023/01/17 07:21:13;;;;;;;9.10;5.38;;;-0.10;50.70;;;;;;5038869;28;20037;-79
2023/01/17 07:23:39;;;;;;;10.95;5.22;;;-0.10;50.70;;;;;;5040308;28;20124;-79
2023/01/17 07:26:05;;;;;;;6.93;4.80;;;-0.10;50.80;;;;;;5022186;28;20033;-80
2023/01/17 07:28:32;;;;;;;6.97;4.47;;;-0.10;50.80;;;;;;5028778;28;20039;-85
2023/01/17 07:30:58;;;;;;;5.53;3.80;;;-0.20;50.70;;;;;;5041925;28;20036;-89
2023/01/17 07:33:24;;;;;;;6.80;4.75;;;-0.20;50.70;;;;;;5016114;28;20083;-85
2023/01/17 07:35:50;;;;;;;8.07;5.03;;;-0.20;50.70;;;;;;5010781;28;20033;-85
2023/01/17 07:38:18;;;;;;;7.80;5.32;;;-0.20;50.80;;;;;;5043071;28;20532;-86
2023/01/17 07:40:45;;;;;;;9.07;4.72;;;-0.20;50.80;;;;;;5036806;28;20068;-85
2023/01/17 07:43:14;;;;;;;8.65;4.60;;;-0.30;50.70;;;;;;5022561;28;20041;-85
2023/01/17 07:45:48;;;;;;;6.63;4.78;;;-0.30;50.70;;;;;;5017758;28;20025;-85
2023/01/17 07:48:14;;;;;;;7.38;4.82;;;-0.30;50.70;;;;;;5034263;28;20068;-84
2023/01/17 07:50:40;;;;;;;6.22;4.38;;;-0.30;50.70;;;;;;5023057;28;20424;-84
2023/01/17 07:53:06;;;;;;;5.68;4.20;;;-0.30;50.80;;;;;;5020689;28;20036;-85
2023/01/17 07:55:32;;;;;;;5.40;3.85;;;-0.30;50.80;;;;;;5032100;28;20128;-84
2023/01/17 07:57:58;;;;;;;6.55;4.15;;;-0.30;50.80;;;;;;5025355;28;20075;-83
2023/01/17 08:00:27;;;;;;;7.38;4.03;;;-0.30;50.80;;;;;;5042736;28;20061;-83
2023/01/17 08:03:00;;;;;;;6.40;4.30;;;-0.30;50.90;;;;;;5029262;28;20415;-84
2023/01/17 08:05:27;;;;;;;6.28;4.38;;;-0.40;50.70;;;;;;5017037;28;20567;-80
2023/01/17 08:07:53;;;;;;;5.70;3.80;;;-0.30;50.90;;;;;;5035915;28;20029;-83
2023/01/17 08:10:20;;;;;;;7.75;4.88;;;-0.30;50.90;;;;;;5041653;28;20290;-82
2023/01/17 08:12:47;;;;;;;5.85;4.22;;;-0.40;50.70;;;;;;5035293;28;20048;-83
2023/01/17 08:15:14;;;;;;;6.93;4.15;;;-0.30;50.90;;;;;;5029992;28;20453;-83
2023/01/17 08:17:47;;;;;;;7.35;4.03;;;-0.30;50.90;;;;;;5022255;28;20132;-82
2023/01/17 08:20:14;;;;;;;6.95;4.40;;;-0.30;50.90;;;;;;5010877;28;20389;-81
2023/01/17 08:22:41;;;;;;;5.43;4.07;;;-0.30;50.90;;;;;;5016948;28;20075;-81
2023/01/17 08:25:07;;;;;;;6.78;4.03;;;-0.30;50.90;;;;;;5035726;28;20178;-80
2023/01/17 08:27:33;;;;;;;6.28;4.13;;;-0.30;50.80;;;;;;5035980;28;20060;-81
2023/01/17 08:29:59;;;;;;;6.43;4.40;;;-0.30;50.90;;;;;;5025060;28;20076;-82
2023/01/17 08:32:25;;;;;;;6.65;4.07;;;-0.30;51.40;;;;;;5025894;28;20152;-80
2023/01/17 08:34:51;;;;;;;5.68;4.18;;;-0.30;50.80;;;;;;5020090;28;20556;-83
2023/01/17 08:37:17;;;;;;;9.25;4.72;;;-0.30;50.80;;;;;;5017508;28;20048;-83
2023/01/17 08:39:43;;;;;;;5.28;3.78;;;-0.20;51.00;;;;;;5023355;28;20033;-84
2023/01/17 08:42:09;;;;;;;6.00;3.85;;;-0.20;51.00;;;;;;5016096;28;20172;-84
2023/01/17 08:44:35;;;;;;;6.50;3.75;;;-0.20;51.00;;;;;;5017491;28;20030;-85
2023/01/17 08:47:01;;;;;;;8.15;5.22;;;-0.20;51.50;;;;;;5017974;28;20456;-81
2023/01/17 08:49:27;;;;;;;6.45;4.90;;;-0.20;51.00;;;;;;5023949;28;20033;-83
2023/01/17 08:51:53;;;;;;;6.15;4.45;;;-0.10;51.10;;;;;;5008430;28;20045;-84
2023/01/17 08:54:19;;;;;;;7.05;4.15;;;-0.10;51.10;;;;;;5017876;28;20034;-83
2023/01/17 08:56:47;;;;;;;4.90;4.40;;;-0.10;51.10;;;;;;5027232;28;20481;-83
2023/01/17 08:59:14;;;;;;;6.25;4.00;;;-0.10;51.00;;;;;;5037868;28;20041;-83
2023/01/17 09:01:40;;;;;;;6.93;3.55;;;0.00;51.20;;;;;;5021078;28;20030;-86
2023/01/17 09:04:10;;;;;;;6.63;4.28;;;0.00;51.10;;;;;;5007460;28;20018;-84
2023/01/17 09:06:38;;;;;;;5.35;3.70;;;0.00;51.10;;;;;;5008758;28;20073;-86
2023/01/17 09:09:06;;;;;;;6.57;4.93;;;0.10;51.20;;;;;;5019766;28;20077;-79
2023/01/17 09:11:32;;;;;;;7.32;4.57;;;0.10;51.20;;;;;;5017612;28;20044;-77
2023/01/17 09:13:58;;;;;;;11.60;5.20;;;0.10;51.10;;;;;;5019527;28;20428;-78
2023/01/17 09:16:25;;;;;;;13.52;6.40;;;0.20;51.20;;;;;;5012054;28;20022;-78
2023/01/17 09:18:55;;;;;;;15.05;6.40;;;0.20;51.10;;;;;;5031802;28;20108;-81
2023/01/17 09:21:21;;;;;;;14.32;5.97;;;0.30;51.30;;;;;;5014206;28;20029;-86
2023/01/17 09:23:47;;;;;;;19.05;7.40;;;0.30;51.20;;;;;;5007473;28;20060;-86
2023/01/17 09:26:28;;;;;;;13.98;5.95;;;0.40;51.40;;;;;;5018945;28;20099;-85
2023/01/17 09:28:54;;;;;;;12.80;5.88;;;0.40;51.30;;;;;;5020045;28;20449;-84
2023/01/17 09:31:21;;;;;;;14.15;6.38;;;0.50;51.40;;;;;;5016264;28;20048;-84
2023/01/17 09:33:49;;;;;;;11.98;6.38;;;0.50;51.30;;;;;;5021135;28;20026;-84
2023/01/17 09:36:15;;;;;;;13.02;5.22;;;0.60;51.40;;;;;;5032872;28;20937;-83
2023/01/17 09:38:42;;;;;;;11.60;5.50;;;0.60;51.40;;;;;;5037077;28;20504;-84
2023/01/17 09:41:30;;;;;;;11.85;5.10;;;0.70;51.50;;;;;;5024880;28;20344;-83
2023/01/17 09:44:11;;;;;;;9.50;4.95;;;0.70;51.40;;;;;;5026451;28;20484;-83
2023/01/17 09:46:41;;;;;;;7.10;4.60;;;0.70;51.40;;;;;;5018741;28;20054;-84
2023/01/17 09:49:41;;;;;;;9.65;5.45;;;0.80;51.50;;;;;;5047223;28;20159;-84
2023/01/17 09:52:10;;;;;;;13.77;4.97;;;0.80;51.50;;;;;;5016916;28;20048;-78
2023/01/17 09:54:39;;;;;;;11.82;5.85;;;0.90;51.60;;;;;;5037817;28;20424;-79
2023/01/17 09:57:20;;;;;;;19.05;5.72;;;0.90;51.50;;;;;;5025610;28;20033;-80
2023/01/17 09:59:58;;;;;;;9.82;5.65;;;1.00;51.70;;;;;;5030643;28;20104;-85
2023/01/17 10:02:49;;;;;;;8.35;4.70;;;1.00;51.60;;;;;;5028129;28;20057;-86
2023/01/17 10:05:30;;;;;;;15.90;5.97;;;1.00;51.60;;;;;;5027045;28;20044;-85
2023/01/17 10:08:17;;;;;;;11.00;5.72;;;1.10;51.70;;;;;;5022649;28;20026;-86
2023/01/17 10:10:58;;;;;;;11.45;4.78;;;1.20;51.90;;;;;;5037089;28;20405;-87
2023/01/17 10:13:39;;;;;;;8.63;5.13;;;1.20;51.80;;;;;;5034695;28;20114;-87
2023/01/17 10:16:29;;;;;;;7.80;4.63;;;1.20;51.70;;;;;;5027745;28;20033;-88
2023/01/17 10:19:13;;;;;;;6.68;3.88;;;1.30;51.90;;;;;;5029261;28;20021;-88
2023/01/17 10:22:03;;;;;;;7.93;4.43;;;1.30;51.90;;;;;;5037648;28;20037;-87
2023/01/17 10:24:31;;;;;;;7.25;4.45;;;1.30;51.80;;;;;;5010890;28;20065;-86
2023/01/17 10:27:00;;;;;;;6.35;4.32;;;1.30;51.80;;;;;;5012269;28;20033;-88
2023/01/17 10:29:31;;;;;;;6.75;4.65;;;1.40;52.00;;;;;;5032337;28;20033;-85
2023/01/17 10:32:01;;;;;;;7.35;4.22;;;1.40;51.90;;;;;;5022038;28;20426;-85
2023/01/17 10:34:41;;;;;;;7.22;4.60;;;1.40;52.00;;;;;;5019168;28;20037;-86
2023/01/17 10:37:30;;;;;;;9.52;4.25;;;1.50;52.20;;;;;;5028772;28;20457;-87
2023/01/17 10:40:10;;;;;;;4.82;3.83;;;1.50;52.10;;;;;;5029290;28;20275;-87
2023/01/17 10:43:13;;;;;;;5.32;3.90;;;1.50;52.10;;;;;;5041781;28;20109;-86
2023/01/17 10:45:47;;;;;;;8.73;4.78;;;1.50;52.10;;;;;;5020116;28;20991;-83
2023/01/17 10:48:24;;;;;;;5.10;4.60;;;1.50;52.00;;;;;;5023202;28;20041;-82
2023/01/17 10:51:10;;;;;;;7.50;3.97;;;1.60;52.20;;;;;;5029182;28;20349;-85
2023/01/17 10:53:57;;;;;;;6.32;4.22;;;1.60;52.20;;;;;;5020040;28;20479;-86
2023/01/17 10:56:27;;;;;;;7.97;4.38;;;1.60;52.20;;;;;;5029592;28;20052;-84
2023/01/17 10:59:21;;;;;;;8.63;3.70;;;1.60;52.20;;;;;;5024663;28;20267;-86
2023/01/17 11:01:47;;;;;;;5.85;3.80;;;1.60;52.20;;;;;;5011082;28;20056;-85
2023/01/17 11:04:19;;;;;;;8.02;3.60;;;1.70;52.40;;;;;;5027205;28;20067;-85
2023/01/17 11:06:47;;;;;;;4.45;3.55;;;1.70;52.40;;;;;;5036986;28;20465;-83
2023/01/17 11:09:13;;;;;;;5.45;4.00;;;1.70;52.40;;;;;;5024377;28;20403;-83
2023/01/17 11:11:49;;;;;;;5.88;3.53;;;1.70;52.30;;;;;;5034354;28;20098;-83
2023/01/17 11:14:25;;;;;;;6.07;3.53;;;1.80;53.10;;;;;;5039428;28;20497;-83
2023/01/17 11:17:02;;;;;;;5.82;3.47;;;1.80;52.50;;;;;;5022236;28;20116;-83
2023/01/17 11:19:31;;;;;;;6.03;3.60;;;1.90;52.60;;;;;;5030482;28;20077;-83
2023/01/17 11:22:03;;;;;;;4.82;3.15;;;1.90;52.50;;;;;;5032194;28;20484;-82
2023/01/17 11:24:53;;;;;;;3.80;3.03;;;1.90;52.40;;;;;;5023867;28;20029;-83
2023/01/17 11:27:26;;;;;;;4.28;3.15;;;2.00;52.50;;;;;;5025688;28;20376;-83
2023/01/17 11:30:17;;;;;;;6.75;4.57;;;2.00;52.50;;;;;;5019147;28;20045;-83
2023/01/17 11:33:03;;;;;;;5.05;3.53;;;2.00;52.40;;;;;;5027403;28;20041;-82
2023/01/17 11:35:44;;;;;;;5.35;3.50;;;2.10;52.60;;;;;;5010621;28;20045;-84
2023/01/17 11:38:15;;;;;;;6.00;3.75;;;2.10;52.50;;;;;;5011607;28;20026;-86
2023/01/17 11:40:46;;;;;;;7.15;4.00;;;2.10;52.50;;;;;;5023906;28;20080;-82
2023/01/17 11:43:17;;;;;;;10.48;3.95;;;2.20;52.70;;;;;;5017950;28;20473;-83
2023/01/17 11:45:44;;;;;;;7.68;4.07;;;2.20;52.70;;;;;;5029828;28;20311;-77
2023/01/17 11:48:15;;;;;;;4.60;3.70;;;2.20;52.60;;;;;;5020688;28;20896;-78
2023/01/17 11:50:43;;;;;;;9.15;3.60;;;2.30;52.80;;;;;;5032370;28;20041;-78
2023/01/17 11:53:17;;;;;;;5.63;3.38;;;2.20;52.60;;;;;;5024585;28;20117;-82
2023/01/17 11:56:21;;;;;;;6.95;4.45;;;2.30;52.80;;;;;;5037931;28;20033;-81
2023/01/17 11:58:48;;;;;;;7.80;3.70;;;2.40;53.30;;;;;;5019369;28;20175;-83
2023/01/17 12:01:27;;;;;;;5.90;3.63;;;2.50;53.50;;;;;;5026783;28;20124;-82
2023/01/17 12:04:17;;;;;;;7.25;3.20;;;2.60;53.60;;;;;;5014701;28;20115;-82
2023/01/17 12:06:56;;;;;;;6.22;3.08;;;2.80;53.80;;;;;;5020664;28;20044;-81
2023/01/17 12:09:21;;;;;;;4.78;3.85;;;2.80;53.60;;;;;;5025821;28;20030;-84
2023/01/17 12:14:58;;;;;;;5.45;2.92;;;2.90;53.70;;;;;;5012499;28;20064;-89
2023/01/17 12:17:29;;;;;;;3.90;3.00;;;2.90;53.60;;;;;;5022464;28;20464;-88
2023/01/17 12:20:04;;;;;;;7.63;3.40;;;2.90;53.70;;;;;;5022250;28;20044;-80
2023/01/17 12:23:03;;;;;;;6.78;3.50;;;2.90;53.70;;;;;;5023842;28;20037;-81
2023/01/17 12:25:43;;;;;;;6.57;3.42;;;2.90;53.70;;;;;;5026765;28;20512;-79
2023/01/17 12:28:37;;;;;;;7.82;3.45;;;2.90;53.70;;;;;;5016987;28;20132;-87
2023/01/17 12:31:27;;;;;;;4.32;2.85;;;2.90;53.70;;;;;;5025632;28;20125;-86
2023/01/17 12:34:15;;;;;;;6.18;3.53;;;2.90;53.70;;;;;;5028185;28;20037;-87
2023/01/17 12:36:56;;;;;;;6.47;3.70;;;2.90;53.70;;;;;;5014309;28;20042;-84
2023/01/17 12:39:31;;;;;;;4.75;3.10;;;2.90;53.80;;;;;;5027740;28;20102;-91
2023/01/17 12:42:17;;;;;;;8.52;3.63;;;2.90;53.80;;;;;;5035278;28;20033;-90
2023/01/17 12:45:04;;;;;;;6.40;3.33;;;2.90;53.80;;;;;;5020045;28;20446;-79
2023/01/17 12:47:36;;;;;;;6.30;3.00;;;2.90;53.80;;;;;;5025683;28;20160;-80
2023/01/17 12:50:32;;;;;;;5.23;3.03;;;2.90;53.80;;;;;;5035414;28;20404;-79
2023/01/17 12:53:18;;;;;;;5.60;2.88;;;3.00;54.00;;;;;;5026435;28;20904;-80
2023/01/17 12:55:58;;;;;;;5.35;2.90;;;2.90;53.80;;;;;;5018519;28;20144;-79
2023/01/17 12:58:28;;;;;;;4.65;2.63;;;3.00;54.00;;;;;;5020572;28;20508;-79
2023/01/17 13:01:14;;;;;;;3.72;2.83;;;3.00;53.90;;;;;;5032389;28;20076;-80
2023/01/17 13:03:53;;;;;;;2.97;2.08;;;3.10;54.00;;;;;;5016292;28;20111;-79
2023/01/17 13:06:43;;;;;;;2.85;2.30;;;3.10;53.90;;;;;;5027439;28;20447;-79
2023/01/17 13:09:12;;;;;;;3.30;2.30;;;3.20;54.10;;;;;;5021079;28;20280;-79
2023/01/17 13:11:56;;;;;;;4.93;2.40;;;3.20;54.00;;;;;;5016549;28;20038;-84
2023/01/17 13:14:22;;;;;;;3.70;2.30;;;3.20;53.90;;;;;;5029415;28;20049;-85
2023/01/17 13:16:57;;;;;;;3.53;2.22;;;3.30;54.00;;;;;;5048577;28;20025;-87
2023/01/17 13:19:35;;;;;;;5.50;2.20;;;3.30;53.90;;;;;;5028395;28;20071;-85
2023/01/17 13:22:06;;;;;;;6.35;2.65;;;3.40;54.00;;;;;;5040023;28;20039;-83
2023/01/17 13:24:43;;;;;;;3.88;2.67;;;3.40;53.90;;;;;;5036896;28;20506;-86
2023/01/17 13:27:27;;;;;;;7.32;2.63;;;3.40;53.80;;;;;;5033452;28;20536;-85
2023/01/17 13:30:26;;;;;;;4.30;2.28;;;3.50;54.00;;;;;;5029250;28;20033;-85
2023/01/17 13:33:14;;;;;;;2.83;2.05;;;3.50;53.90;;;;;;5003965;28;20068;-88
2023/01/17 13:36:08;;;;;;;5.78;2.50;;;3.60;54.00;;;;;;5012904;28;20033;-83
2023/01/17 13:38:56;;;;;;;3.85;2.53;;;3.70;54.10;;;;;;5011410;28;20025;-85
2023/01/17 13:41:22;;;;;;;3.60;2.38;;;3.70;54.00;;;;;;5029063;28;20029;-84
2023/01/17 13:46:54;;;;;;;4.07;2.45;;;3.80;54.10;;;;;;5013308;28;20124;-86
2023/01/17 13:49:32;;;;;;;3.75;2.13;;;3.80;54.00;;;;;;5035944;28;20297;-87
2023/01/17 13:52:01;;;;;;;4.30;2.33;;;3.80;54.00;;;;;;5016228;28;20073;-85
2023/01/17 13:54:32;;;;;;;6.72;2.42;;;3.80;54.00;;;;;;5024371;28;20037;-88
2023/01/17 13:57:28;;;;;;;5.05;2.33;;;3.80;54.50;;;;;;5004288;28;20489;-79
2023/01/17 13:59:56;;;;;;;4.22;2.22;;;3.90;54.10;;;;;;5025396;28;20088;-78
2023/01/17 14:02:31;;;;;;;5.20;2.33;;;3.90;54.10;;;;;;5005025;28;20026;-80
2023/01/17 14:05:14;;;;;;;5.88;2.08;;;3.90;54.00;;;;;;5013458;28;20026;-86
2023/01/17 14:08:00;;;;;;;6.13;2.10;;;3.90;54.00;;;;;;5013731;28;20038;-85
2023/01/17 14:10:34;;;;;;;4.95;3.83;;;3.90;53.90;;;;;;5032934;28;20037;-87
2023/01/17 14:13:02;;;;;;;5.15;2.10;;;4.00;54.10;;;;;;5032272;28;20437;-85
2023/01/17 14:15:31;;;;;;;3.80;1.63;;;3.90;53.90;;;;;;5023039;28;20030;-84
2023/01/17 14:18:01;;;;;;;7.72;2.30;;;3.90;53.90;;;;;;5027234;28;20033;-88
2023/01/17 14:20:43;;;;;;;2.40;1.92;;;4.00;54.10;;;;;;5029844;28;20497;-84
2023/01/17 14:23:26;;;;;;;5.22;1.75;;;4.00;54.10;;;;;;5034687;28;20041;-82
2023/01/17 14:25:52;;;;;;;3.17;1.87;;;4.00;54.10;;;;;;5045108;28;20064;-85
2023/01/17 14:28:28;;;;;;;2.88;1.98;;;4.00;54.10;;;;;;5030699;28;20108;-84
2023/01/17 14:30:55;;;;;;;2.65;1.73;;;4.00;54.10;;;;;;5046860;28;20060;-83
2023/01/17 14:33:32;;;;;;;3.03;1.67;;;4.00;54.10;;;;;;5022304;28;20037;-89
2023/01/17 14:36:04;;;;;;;2.83;1.88;;;4.00;54.10;;;;;;5034632;28;20037;-84
2023/01/17 14:38:32;;;;;;;1.70;1.60;;;4.00;54.10;;;;;;5035041;28;20041;-86
2023/01/17 14:41:10;;;;;;;3.90;1.60;;;4.00;54.10;;;;;;5039085;28;20030;-84
2023/01/17 14:43:40;;;;;;;2.35;1.42;;;4.00;54.10;;;;;;5034716;28;20052;-85